Aviation Digital Data Service (ADDS)

Output produced by METARs form (1903 UTC 19 August 2019)
found at http://www.aviationweather.gov/metar/data/
 
METAR text: RJDC 191200Z 10011KT 9999 FEW010 SCT120 BKN150 26/24 Q1008
Conditions at: RJDC (YAMAGUCHI/UBE AR, JP) observed 1200 UTC 19 August 2019
Temperature: 26.0°C (79°F)
Dewpoint: 24.0°C (75°F) [RH = 89%]
Pressure (altimeter): 29.76 inches Hg (1008.0 mb)
Winds: from the E (100 degrees) at 13 MPH (11 knots; 5.7 m/s)
Visibility: 6 or more miles (10+ km)
Ceiling: 15000 feet AGL
Clouds: few clouds at 1000 feet AGL
scattered clouds at 12000 feet AGL
broken clouds at 15000 feet AGL
Weather: no significant weather observed at this time

METAR text: RJDC 191100Z 12007KT 9000 FEW008 SCT010 BKN040 26/24 Q1009
Conditions at: RJDC (YAMAGUCHI/UBE AR, JP) observed 1100 UTC 19 August 2019
Temperature: 26.0°C (79°F)
Dewpoint: 24.0°C (75°F) [RH = 89%]
Pressure (altimeter): 29.79 inches Hg (1009.0 mb)
Winds: from the ESE (120 degrees) at 8 MPH (7 knots; 3.6 m/s)
Visibility: 6 miles ( 9 km)
Ceiling: 4000 feet AGL
Clouds: few clouds at 800 feet AGL
scattered clouds at 1000 feet AGL
broken clouds at 4000 feet AGL
Weather: no significant weather observed at this time

METAR text: RJDC 191000Z 09007KT 7000 FEW010 SCT100 BKN150 26/24 Q1008
Conditions at: RJDC (YAMAGUCHI/UBE AR, JP) observed 1000 UTC 19 August 2019
Temperature: 26.0°C (79°F)
Dewpoint: 24.0°C (75°F) [RH = 89%]
Pressure (altimeter): 29.76 inches Hg (1008.0 mb)
Winds: from the E (90 degrees) at 8 MPH (7 knots; 3.6 m/s)
Visibility: 4 miles ( 7 km)
Ceiling: 15000 feet AGL
Clouds: few clouds at 1000 feet AGL
scattered clouds at 10000 feet AGL
broken clouds at 15000 feet AGL
Weather: no significant weather observed at this time

METAR text: RJDC 190900Z 10007KT 5000 -RA BR FEW010 SCT040 BKN070 26/24 Q1008
Conditions at: RJDC (YAMAGUCHI/UBE AR, JP) observed 0900 UTC 19 August 2019
Temperature: 26.0°C (79°F)
Dewpoint: 24.0°C (75°F) [RH = 89%]
Pressure (altimeter): 29.76 inches Hg (1008.0 mb)
Winds: from the E (100 degrees) at 8 MPH (7 knots; 3.6 m/s)
Visibility: 3 miles ( 5 km)
Ceiling: 7000 feet AGL
Clouds: few clouds at 1000 feet AGL
scattered clouds at 4000 feet AGL
broken clouds at 7000 feet AGL
Weather: -RA BR  (light rain, mist)

METAR text: RJDC 190838Z 10009KT 6000 -RA FEW010 SCT040 BKN150 26/24 Q1008 RMK 1ST010 3CU040 6AC150 A2977
Conditions at: RJDC (YAMAGUCHI/UBE AR, JP) observed 0838 UTC 19 August 2019
Temperature: 26.0°C (79°F)
Dewpoint: 24.0°C (75°F) [RH = 89%]
Pressure (altimeter): 29.76 inches Hg (1008.0 mb)
Winds: from the E (100 degrees) at 10 MPH (9 knots; 4.6 m/s)
Visibility: 4 miles ( 6 km)
Ceiling: 15000 feet AGL
Clouds: few clouds at 1000 feet AGL
scattered clouds at 4000 feet AGL
broken clouds at 15000 feet AGL
Weather: -RA  (light rain)

METAR text: RJDC 190800Z 10009KT 8000 FEW010 SCT050 BKN130 26/24 Q1008
Conditions at: RJDC (YAMAGUCHI/UBE AR, JP) observed 0800 UTC 19 August 2019
Temperature: 26.0°C (79°F)
Dewpoint: 24.0°C (75°F) [RH = 89%]
Pressure (altimeter): 29.76 inches Hg (1008.0 mb)
Winds: from the E (100 degrees) at 10 MPH (9 knots; 4.6 m/s)
Visibility: 5 miles ( 8 km)
Ceiling: 13000 feet AGL
Clouds: few clouds at 1000 feet AGL
scattered clouds at 5000 feet AGL
broken clouds at 13000 feet AGL
Weather: no significant weather observed at this time

METAR text: RJDC 190700Z 09008KT 8000 -RA FEW010 SCT050 BKN160 26/24 Q1008
Conditions at: RJDC (YAMAGUCHI/UBE AR, JP) observed 0700 UTC 19 August 2019
Temperature: 26.0°C (79°F)
Dewpoint: 24.0°C (75°F) [RH = 89%]
Pressure (altimeter): 29.76 inches Hg (1008.0 mb)
Winds: from the E (90 degrees) at 9 MPH (8 knots; 4.1 m/s)
Visibility: 5 miles ( 8 km)
Ceiling: 16000 feet AGL
Clouds: few clouds at 1000 feet AGL
scattered clouds at 5000 feet AGL
broken clouds at 16000 feet AGL
Weather: -RA  (light rain)

METAR text: RJDC 190625Z 09010KT 6000 -RA FEW010 SCT040 BKN060 26/24 Q1008 RMK 1ST010 3CU040 5SC060 A2978
Conditions at: RJDC (YAMAGUCHI/UBE AR, JP) observed 0625 UTC 19 August 2019
Temperature: 26.0°C (79°F)
Dewpoint: 24.0°C (75°F) [RH = 89%]
Pressure (altimeter): 29.76 inches Hg (1008.0 mb)
Winds: from the E (90 degrees) at 12 MPH (10 knots; 5.1 m/s)
Visibility: 4 miles ( 6 km)
Ceiling: 6000 feet AGL
Clouds: few clouds at 1000 feet AGL
scattered clouds at 4000 feet AGL
broken clouds at 6000 feet AGL
Weather: -RA  (light rain)

METAR text: RJDC 190600Z 09010KT 6000 -RA FEW010 SCT040 BKN050 26/24 Q1008
Conditions at: RJDC (YAMAGUCHI/UBE AR, JP) observed 0600 UTC 19 August 2019
Temperature: 26.0°C (79°F)
Dewpoint: 24.0°C (75°F) [RH = 89%]
Pressure (altimeter): 29.76 inches Hg (1008.0 mb)
Winds: from the E (90 degrees) at 12 MPH (10 knots; 5.1 m/s)
Visibility: 4 miles ( 6 km)
Ceiling: 5000 feet AGL
Clouds: few clouds at 1000 feet AGL
scattered clouds at 4000 feet AGL
broken clouds at 5000 feet AGL
Weather: -RA  (light rain)

METAR text: RJDC 190500Z 09008KT 9000 FEW008 SCT030 BKN060 27/24 Q1008
Conditions at: RJDC (YAMAGUCHI/UBE AR, JP) observed 0500 UTC 19 August 2019
Temperature: 27.0°C (81°F)
Dewpoint: 24.0°C (75°F) [RH = 84%]
Pressure (altimeter): 29.76 inches Hg (1008.0 mb)
Winds: from the E (90 degrees) at 9 MPH (8 knots; 4.1 m/s)
Visibility: 6 miles ( 9 km)
Ceiling: 6000 feet AGL
Clouds: few clouds at 800 feet AGL
scattered clouds at 3000 feet AGL
broken clouds at 6000 feet AGL
Weather: no significant weather observed at this time

METAR text: RJDC 190400Z 12009KT 6000 -RA FEW006 SCT010 BKN015 26/24 Q1008
Conditions at: RJDC (YAMAGUCHI/UBE AR, JP) observed 0400 UTC 19 August 2019
Temperature: 26.0°C (79°F)
Dewpoint: 24.0°C (75°F) [RH = 89%]
Pressure (altimeter): 29.76 inches Hg (1008.0 mb)
Winds: from the ESE (120 degrees) at 10 MPH (9 knots; 4.6 m/s)
Visibility: 4 miles ( 6 km)
Ceiling: 1500 feet AGL
Clouds: few clouds at 600 feet AGL
scattered clouds at 1000 feet AGL
broken clouds at 1500 feet AGL
Weather: -RA  (light rain)

METAR text: RJDC 190315Z 10010KT 5000 -RA BR FEW005 SCT008 BKN012 27/25 Q1009 RMK 1ST005 3ST008 5ST012 A2979
Conditions at: RJDC (YAMAGUCHI/UBE AR, JP) observed 0315 UTC 19 August 2019
Temperature: 27.0°C (81°F)
Dewpoint: 25.0°C (77°F) [RH = 89%]
Pressure (altimeter): 29.79 inches Hg (1009.0 mb)
Winds: from the E (100 degrees) at 12 MPH (10 knots; 5.1 m/s)
Visibility: 3 miles ( 5 km)
Ceiling: 1200 feet AGL
Clouds: few clouds at 500 feet AGL
scattered clouds at 800 feet AGL
broken clouds at 1200 feet AGL
Weather: -RA BR  (light rain, mist)

METAR text: RJDC 190300Z 10011KT 4000 -SHRA BR FEW006 SCT010 BKN030 27/25 Q1009
Conditions at: RJDC (YAMAGUCHI/UBE AR, JP) observed 0300 UTC 19 August 2019
Temperature: 27.0°C (81°F)
Dewpoint: 25.0°C (77°F) [RH = 89%]
Pressure (altimeter): 29.79 inches Hg (1009.0 mb)
Winds: from the E (100 degrees) at 13 MPH (11 knots; 5.7 m/s)
Visibility: 2.49 miles (4.01 km)
Ceiling: 3000 feet AGL
Clouds: few clouds at 600 feet AGL
scattered clouds at 1000 feet AGL
broken clouds at 3000 feet AGL
Weather: -SHRA BR  (light rain showers, mist)

METAR text: RJDC 190223Z 12009KT 4000 -SHRA BR FEW010 BKN030 BKN035 27/25 Q1009 RMK 1ST010 5CU030 6CU035 A2981
Conditions at: RJDC (YAMAGUCHI/UBE AR, JP) observed 0223 UTC 19 August 2019
Temperature: 27.0°C (81°F)
Dewpoint: 25.0°C (77°F) [RH = 89%]
Pressure (altimeter): 29.79 inches Hg (1009.0 mb)
Winds: from the ESE (120 degrees) at 10 MPH (9 knots; 4.6 m/s)
Visibility: 2.49 miles (4.01 km)
Ceiling: 3000 feet AGL
Clouds: few clouds at 1000 feet AGL
broken clouds at 3000 feet AGL
broken clouds at 3500 feet AGL
Weather: -SHRA BR  (light rain showers, mist)

METAR text: RJDC 190200Z 12009KT 5000 -SHRA BR FEW010 SCT025 BKN035 27/25 Q1009
Conditions at: RJDC (YAMAGUCHI/UBE AR, JP) observed 0200 UTC 19 August 2019
Temperature: 27.0°C (81°F)
Dewpoint: 25.0°C (77°F) [RH = 89%]
Pressure (altimeter): 29.79 inches Hg (1009.0 mb)
Winds: from the ESE (120 degrees) at 10 MPH (9 knots; 4.6 m/s)
Visibility: 3 miles ( 5 km)
Ceiling: 3500 feet AGL
Clouds: few clouds at 1000 feet AGL
scattered clouds at 2500 feet AGL
broken clouds at 3500 feet AGL
Weather: -SHRA BR  (light rain showers, mist)

METAR text: RJDC 190100Z 12009KT 8000 FEW025 SCT090 BKN/// 27/24 Q1009
Conditions at: RJDC (YAMAGUCHI/UBE AR, JP) observed 0100 UTC 19 August 2019
Temperature: 27.0°C (81°F)
Dewpoint: 24.0°C (75°F) [RH = 84%]
Pressure (altimeter): 29.79 inches Hg (1009.0 mb)
Winds: from the ESE (120 degrees) at 10 MPH (9 knots; 4.6 m/s)
Visibility: 5 miles ( 8 km)
Ceiling: at least 12,000 feet AGL
Clouds: few clouds at 2500 feet AGL
scattered clouds at 9000 feet AGL
Weather: no significant weather observed at this time

METAR text: RJDC 190000Z 10009KT 8000 FEW030 BKN100 BKN/// 27/24 Q1008
Conditions at: RJDC (YAMAGUCHI/UBE AR, JP) observed 0000 UTC 19 August 2019
Temperature: 27.0°C (81°F)
Dewpoint: 24.0°C (75°F) [RH = 84%]
Pressure (altimeter): 29.76 inches Hg (1008.0 mb)
Winds: from the E (100 degrees) at 10 MPH (9 knots; 4.6 m/s)
Visibility: 5 miles ( 8 km)
Ceiling: 10000 feet AGL
Clouds: few clouds at 3000 feet AGL
broken clouds at 10000 feet AGL
Weather: no significant weather observed at this time

METAR text: RJDC 182300Z 07005KT 7000 FEW020 BKN/// 27/24 Q1008
Conditions at: RJDC (YAMAGUCHI/UBE AR, JP) observed 2300 UTC 18 August 2019
Temperature: 27.0°C (81°F)
Dewpoint: 24.0°C (75°F) [RH = 84%]
Pressure (altimeter): 29.76 inches Hg (1008.0 mb)
Winds: from the ENE (70 degrees) at 6 MPH (5 knots; 2.6 m/s)
Visibility: 4 miles ( 7 km)
Ceiling: at least 12,000 feet AGL
Clouds: few clouds at 2000 feet AGL
Weather: no significant weather observed at this time

METAR text: RJDC 182200Z 04005KT 7000 FEW020 SCT130 BKN/// 26/24 Q1008
Conditions at: RJDC (YAMAGUCHI/UBE AR, JP) observed 2200 UTC 18 August 2019
Temperature: 26.0°C (79°F)
Dewpoint: 24.0°C (75°F) [RH = 89%]
Pressure (altimeter): 29.76 inches Hg (1008.0 mb)
Winds: from the NE (40 degrees) at 6 MPH (5 knots; 2.6 m/s)
Visibility: 4 miles ( 7 km)
Ceiling: at least 12,000 feet AGL
Clouds: few clouds at 2000 feet AGL
scattered clouds at 13000 feet AGL
Weather: no significant weather observed at this time

METAR text: RJDC 182130Z 05006KT 8000 FEW020 SCT100 BKN130 26/23 Q1007
Conditions at: RJDC (YAMAGUCHI/UBE AR, JP) observed 2130 UTC 18 August 2019
Temperature: 26.0°C (79°F)
Dewpoint: 23.0°C (73°F) [RH = 84%]
Pressure (altimeter): 29.73 inches Hg (1007.0 mb)
Winds: from the NE (50 degrees) at 7 MPH (6 knots; 3.1 m/s)
Visibility: 5 miles ( 8 km)
Ceiling: 13000 feet AGL
Clouds: few clouds at 2000 feet AGL
scattered clouds at 10000 feet AGL
broken clouds at 13000 feet AGL
Weather: no significant weather observed at this time

METAR text: RJDC 181200Z VRB02KT 9999 FEW020 BKN140 27/24 Q1007
Conditions at: RJDC (YAMAGUCHI/UBE AR, JP) observed 1200 UTC 18 August 2019
Temperature: 27.0°C (81°F)
Dewpoint: 24.0°C (75°F) [RH = 84%]
Pressure (altimeter): 29.73 inches Hg (1007.0 mb)
Winds: variable direction winds at 2 MPH (2 knots; 1.0 m/s)
Visibility: 6 or more miles (10+ km)
Ceiling: 14000 feet AGL
Clouds: few clouds at 2000 feet AGL
broken clouds at 14000 feet AGL
Weather: no significant weather observed at this time

METAR text: RJDC 181100Z VRB01KT 9999 FEW015 SCT150 BKN170 27/24 Q1006
Conditions at: RJDC (YAMAGUCHI/UBE AR, JP) observed 1100 UTC 18 August 2019
Temperature: 27.0°C (81°F)
Dewpoint: 24.0°C (75°F) [RH = 84%]
Pressure (altimeter): 29.70 inches Hg (1006.0 mb)
Winds: variable direction winds at 1 MPH (1 knots; 0.5 m/s)
Visibility: 6 or more miles (10+ km)
Ceiling: 17000 feet AGL
Clouds: few clouds at 1500 feet AGL
scattered clouds at 15000 feet AGL
broken clouds at 17000 feet AGL
Weather: no significant weather observed at this time

METAR text: RJDC 181000Z VRB02KT 9999 FEW015 SCT150 BKN170 28/24 Q1006
Conditions at: RJDC (YAMAGUCHI/UBE AR, JP) observed 1000 UTC 18 August 2019
Temperature: 28.0°C (82°F)
Dewpoint: 24.0°C (75°F) [RH = 79%]
Pressure (altimeter): 29.70 inches Hg (1006.0 mb)
Winds: variable direction winds at 2 MPH (2 knots; 1.0 m/s)
Visibility: 6 or more miles (10+ km)
Ceiling: 17000 feet AGL
Clouds: few clouds at 1500 feet AGL
scattered clouds at 15000 feet AGL
broken clouds at 17000 feet AGL
Weather: no significant weather observed at this time

METAR text: RJDC 180900Z 11004KT 090V150 9999 FEW020 BKN150 BKN/// 28/24 Q1005
Conditions at: RJDC (YAMAGUCHI/UBE AR, JP) observed 0900 UTC 18 August 2019
Temperature: 28.0°C (82°F)
Dewpoint: 24.0°C (75°F) [RH = 79%]
Pressure (altimeter): 29.68 inches Hg (1005.0 mb)
Winds: from the ESE (110 degrees) at 5 MPH (4 knots; 2.1 m/s)
Visibility: 6 or more miles (10+ km)
Ceiling: 15000 feet AGL
Clouds: few clouds at 2000 feet AGL
broken clouds at 15000 feet AGL
Weather: no significant weather observed at this time

METAR text: RJDC 180800Z VRB02KT 9999 -RA FEW020 SCT120 BKN150 28/23 Q1006
Conditions at: RJDC (YAMAGUCHI/UBE AR, JP) observed 0800 UTC 18 August 2019
Temperature: 28.0°C (82°F)
Dewpoint: 23.0°C (73°F) [RH = 74%]
Pressure (altimeter): 29.70 inches Hg (1006.0 mb)
Winds: variable direction winds at 2 MPH (2 knots; 1.0 m/s)
Visibility: 6 or more miles (10+ km)
Ceiling: 15000 feet AGL
Clouds: few clouds at 2000 feet AGL
scattered clouds at 12000 feet AGL
broken clouds at 15000 feet AGL
Weather: -RA  (light rain)